KOKK/OKK METAR and TAF weather

Enter ICAO airport designator
Station Type Date Time Source
KOKK METAR 2020/06/01 14:56 UTC NOAA

KOKK 011456Z AUTO 16008KT 10SM CLR 20/08 A3031 RMK AO2 SLP263 T02000078 58002


Station Type Date Time Source
KOKK Decoded METAR 2020/06/01 14:56 UTC NOAA

Kokomo, Kokomo Municipal Airport, IN, United States (KOKK) 40-32N 086-04W
Jun 01, 2020 - 10:56 AM EDT / 2020.06.01 1456 UTC
Wind: from the SSE (160 degrees) at 9 MPH (8 KT):0
Visibility: 10 mile(s):0
Sky conditions: clear
Temperature: 68.0 F (20.0 C)
Dew Point: 46.0 F (7.8 C)
Relative Humidity: 45%
Pressure (altimeter): 30.31 in. Hg (1026 hPa)
Pressure tendency: 0.01 inches (0.2 hPa) lower than three hours ago
ob: KOKK 011456Z AUTO 16008KT 10SM CLR 20/08 A3031 RMK AO2 SLP263 T02000078 58002
cycle: 15

Station Type Date Time Source
KOKK TAF UTC NOAA

Error!

Example: see airport list